Wood, Iowa
Current Conditions -  °F | °C
As of 8:35 PM on Friday 24 Oct 2014 (Local Time) from KPDC Reporting Station
Overcast Overcast  
Wind Chill: 59°   Ceiling: 3000
Heat Index: 59°   Visibility: 7mi
Dew Point: 56°   Wind: 0mph
Humidity: 88%   Direction: NA
Pressure: 29.91"   Gusts: NA
Location:  42.6679°N, 91.3801°W
Report Text: KPDC 250135Z AUTO 00000KT 7SM SCT013 OVC030 15/13 A2991 RMK AO2 T01520133
Loading
Personal Weather Stations






























Interactive Weather Map New forecast layout! Learn more

10-Day Weather Forecast

Advertisements
Track Severe Weather on mobile